Airfield :
LOGIN :

Register | Disclaimer

   EN    FR    IT 

 










Legend :    VFR   Marginal VFR   IFR   Intensive IFR   Very Intensive IFR
Visi :
Ceiling :
>= 8 km
>= 3000ft
5 to 8 km
1000 to 3000 ft
1500m to 5 km
500 to 1000 ft
800 to 1500m
200 to 500 ft
< 800m
< 200 ft
Symbols :   Thunderstorms  Fog  Heavy snow  Heavy precipitations  Wind > 20 kt
SIGMETs :     Misc.  Thunderstorms  Icing  Turbulence  Mountain Waves  Volcanic Ashes







- Airport Elevation : 38 ft
- IATA code : TRE
- Download approach charts


EGPU - Tiree

CURRENT METAR :
  • 251320Z AUTO 13012KT 9999 NCD 14/08 Q0995

EXPIRED METARs :
  • 251250Z AUTO 13013KT 9999 NCD 14/08 Q0995
  • 251220Z AUTO 13014KT 040V100 9999 NCD 14/08 Q0995
  • 251150Z AUTO 13017KT 9999 NCD 13/07 Q0995
  • 251120Z 13016KT 9999 FEW038 13/08 Q0995
  • 251050Z 13015KT 9999 FEW038 11/08 Q0995

TAF TAF EGPU
Valid from the 25 at 12:00 until the 25 at 18:00 UTC


251101Z 2512/2518 12012KT 9999 FEW045
BECMG 2512/2515 06005KT
TEMPO 2514/2518 6000 SHRA
No reported NOTAMs for that airfield.



MET'MAP, your aeronautical weather chart ! - Copyright ORBIFLY December 2007 - Disclaimer

ORBIFLY MET'MAP TEAM :

Programming & Development : Alexandra Zaïnal
Concept & Development : Baudouin d'Aumeries
Co-Development & Prog : Marc-Olivier Méhu
Technical & hardware support : Manuel Goepfert

Contact : metmap@orbifly.com




SOURCES & CREDITS :

   NOAA